Aviation Digital Data Service (ADDS)

Output produced by METARs form (2042 UTC 20 November 2014)
found at http://aviationweather.gov/adds/metars/
 
KLAX 201740Z 2018/2124 25006KT P6SM SCT025 SCT250 
     FM202100 26010KT P6SM SCT025 SCT040 BKN200 
     FM210100 26008KT P6SM BKN020 BKN040 
     FM210800 30010KT P6SM VCSH BKN015 BKN040 
     FM211400 34006KT P6SM SCT020 BKN060 
     FM211900 29008KT P6SM SCT250